createdAt,value
2023-01-30T00:01:02.235Z,101043.34
2023-01-30T00:04:05.236Z,101041.72
2023-01-30T00:07:08.086Z,101042.78
2023-01-30T00:10:11.374Z,101037.88
2023-01-30T00:13:18.249Z,101034.63
2023-01-30T00:16:21.127Z,101040.75
2023-01-30T00:19:27.307Z,101031.41
2023-01-30T00:22:31.194Z,101022.19
2023-01-30T00:25:34.264Z,101040.06
2023-01-30T00:28:37.426Z,101022.56
2023-01-30T00:31:40.360Z,101020.03
2023-01-30T00:34:43.211Z,101023.41
2023-01-30T00:37:45.997Z,101020.09
2023-01-30T00:40:49.216Z,101012.66
2023-01-30T00:44:10.626Z,101005.00
2023-01-30T00:47:13.778Z,101001.81
2023-01-30T00:50:16.832Z,101006.25
2023-01-30T00:53:19.785Z,101003.59
2023-01-30T00:56:22.678Z,101007.16
2023-01-30T00:59:26.210Z,101005.38
2023-01-30T01:02:29.056Z,100997.72
2023-01-30T01:05:32.516Z,100994.38
2023-01-30T01:08:35.746Z,100997.72
2023-01-30T01:11:38.547Z,100989.44
2023-01-30T01:14:41.552Z,100983.50
2023-01-30T01:17:47.807Z,100974.78
2023-01-30T01:20:50.703Z,100974.72
2023-01-30T01:23:55.701Z,100964.81
2023-01-30T01:26:58.976Z,100961.47
2023-01-30T01:30:02.529Z,100953.03
2023-01-30T01:33:05.984Z,100949.37
2023-01-30T01:36:09.290Z,100948.69
2023-01-30T01:39:12.280Z,100946.16
2023-01-30T01:42:15.088Z,100943.25
2023-01-30T01:45:25.162Z,100939.44
2023-01-30T01:48:45.705Z,100924.28
2023-01-30T01:52:13.845Z,100930.22
2023-01-30T01:55:19.955Z,100917.59
2023-01-30T01:58:53.221Z,100913.97
2023-01-30T02:02:01.909Z,100908.66
2023-01-30T02:05:06.958Z,100904.56
2023-01-30T02:08:14.109Z,100891.63
2023-01-30T02:11:35.479Z,100899.78
2023-01-30T02:14:38.663Z,100895.59
2023-01-30T02:17:41.555Z,100892.50
2023-01-30T02:21:22.057Z,100888.66
2023-01-30T02:24:46.301Z,100882.62
2023-01-30T02:28:10.469Z,100887.56
2023-01-30T02:31:35.610Z,100882.88
2023-01-30T02:34:58.508Z,100884.28
2023-01-30T02:38:34.726Z,100866.06
2023-01-30T02:41:49.618Z,100869.88
2023-01-30T02:45:04.631Z,100868.31
2023-01-30T02:48:08.698Z,100869.38
2023-01-30T02:51:20.331Z,100872.19
2023-01-30T02:54:23.488Z,100867.22
2023-01-30T02:57:27.473Z,100863.97
2023-01-30T03:00:55.829Z,100858.22
2023-01-30T03:04:26.593Z,100856.50
2023-01-30T03:07:35.102Z,100843.87
2023-01-30T03:11:10.483Z,100847.28
2023-01-30T03:14:25.234Z,100829.44
2023-01-30T03:17:29.138Z,100832.06
2023-01-30T03:20:32.522Z,100821.88
2023-01-30T03:23:35.439Z,100817.69
2023-01-30T03:26:50.524Z,100809.22
2023-01-30T03:29:53.450Z,100806.75
2023-01-30T03:32:56.269Z,100806.84
2023-01-30T03:35:59.150Z,100799.37
2023-01-30T03:39:02.075Z,100800.25
2023-01-30T03:42:05.099Z,100795.03
2023-01-30T03:45:08.757Z,100793.44
2023-01-30T03:48:11.740Z,100797.94
2023-01-30T03:51:14.845Z,100791.25
2023-01-30T03:54:17.752Z,100784.59
2023-01-30T03:57:22.204Z,100774.41
2023-01-30T04:00:27.949Z,100776.13
2023-01-30T04:03:30.811Z,100772.84
2023-01-30T04:06:35.199Z,100755.91
2023-01-30T04:09:39.375Z,100766.88
2023-01-30T04:12:45.178Z,100764.38
2023-01-30T04:15:50.819Z,100773.78
2023-01-30T04:18:53.994Z,100764.38
2023-01-30T04:21:56.789Z,100763.47
2023-01-30T04:24:59.641Z,100763.59
2023-01-30T04:28:02.598Z,100761.12
2023-01-30T04:31:06.365Z,100756.13
2023-01-30T04:34:09.249Z,100750.25
2023-01-30T04:37:12.958Z,100744.28
2023-01-30T04:40:15.890Z,100738.34
2023-01-30T04:43:20.017Z,100743.62
2023-01-30T04:46:22.950Z,100742.88
2023-01-30T04:49:25.797Z,100720.06
2023-01-30T04:52:28.622Z,100711.59
2023-01-30T04:55:31.757Z,100704.91
2023-01-30T04:58:34.572Z,100701.91
2023-01-30T05:01:38.851Z,100705.16
2023-01-30T05:04:41.864Z,100696.78
2023-01-30T05:07:44.875Z,100700.03
2023-01-30T05:10:47.809Z,100700.66
2023-01-30T05:13:53.999Z,100695.00
2023-01-30T05:16:56.746Z,100714.69
2023-01-30T05:19:59.554Z,100709.66
2023-01-30T05:23:02.447Z,100715.63
2023-01-30T05:26:05.868Z,100721.81
2023-01-30T05:29:10.585Z,100713.28
2023-01-30T05:32:14.996Z,100717.56
2023-01-30T05:35:18.306Z,100710.72
2023-01-30T05:38:24.899Z,100714.28
2023-01-30T05:41:27.784Z,100710.09
2023-01-30T05:44:30.661Z,100701.41
2023-01-30T05:47:33.424Z,100704.03
2023-01-30T05:50:36.252Z,100698.75
2023-01-30T05:53:39.343Z,100706.72
2023-01-30T05:56:49.767Z,100702.22
2023-01-30T05:59:53.111Z,100690.25
2023-01-30T06:02:56.031Z,100690.47
2023-01-30T06:05:59.088Z,100683.50
2023-01-30T06:09:02.344Z,100689.72
2023-01-30T06:12:05.531Z,100684.37
2023-01-30T06:15:09.146Z,100681.69
2023-01-30T06:18:11.987Z,100676.69
2023-01-30T06:21:15.584Z,100677.47
2023-01-30T06:24:18.424Z,100657.09
2023-01-30T06:27:21.748Z,100662.16
2023-01-30T06:30:24.583Z,100660.78
2023-01-30T06:33:27.674Z,100664.19
2023-01-30T06:36:32.737Z,100656.09
2023-01-30T06:39:35.613Z,100662.44
2023-01-30T06:42:45.451Z,100655.47
2023-01-30T06:45:48.310Z,100664.13
2023-01-30T06:48:51.421Z,100668.75
2023-01-30T06:51:54.266Z,100671.88
2023-01-30T06:54:57.083Z,100674.00
2023-01-30T06:58:07.786Z,100675.25
2023-01-30T07:01:10.654Z,100678.78
2023-01-30T07:04:13.631Z,100665.41
2023-01-30T07:07:16.492Z,100664.84
2023-01-30T07:10:19.430Z,100661.44
2023-01-30T07:13:22.324Z,100665.59
2023-01-30T07:16:29.647Z,100664.00
2023-01-30T07:19:33.118Z,100661.75
2023-01-30T07:22:36.135Z,100653.31
2023-01-30T07:25:39.140Z,100647.59
2023-01-30T07:28:41.979Z,100623.87
2023-01-30T07:31:45.135Z,100616.44
2023-01-30T07:34:48.147Z,100611.53
2023-01-30T07:37:52.319Z,100618.88
2023-01-30T07:40:58.488Z,100607.28
2023-01-30T07:44:02.164Z,100614.78
2023-01-30T07:47:05.163Z,100614.53
2023-01-30T07:50:08.700Z,100618.53
2023-01-30T07:53:14.091Z,100615.72
2023-01-30T07:56:18.898Z,100608.72
2023-01-30T07:59:22.025Z,100612.72
2023-01-30T08:02:24.908Z,100609.72
2023-01-30T08:05:27.875Z,100598.47
2023-01-30T08:08:30.757Z,100593.03
2023-01-30T08:11:34.033Z,100602.19
2023-01-30T08:14:36.926Z,100589.84
2023-01-30T08:17:39.828Z,100596.59
2023-01-30T08:20:43.292Z,100589.59
2023-01-30T08:23:46.301Z,100591.06
2023-01-30T08:26:50.684Z,100587.44
2023-01-30T08:29:53.689Z,100587.06
2023-01-30T08:33:01.443Z,100602.22
2023-01-30T08:36:07.627Z,100594.69
2023-01-30T08:39:12.608Z,100614.00
2023-01-30T08:42:15.435Z,100603.94
2023-01-30T08:45:18.374Z,100620.22
2023-01-30T08:48:24.208Z,100607.69
2023-01-30T08:51:27.095Z,100605.66
2023-01-30T08:54:31.399Z,100602.81
2023-01-30T08:57:36.342Z,100599.75
2023-01-30T09:00:44.583Z,100606.69
2023-01-30T09:03:54.036Z,100601.28
2023-01-30T09:06:59.661Z,100580.69
2023-01-30T09:10:02.612Z,100580.41
2023-01-30T09:13:05.852Z,100582.25
2023-01-30T09:16:12.303Z,100569.22
2023-01-30T09:19:16.205Z,100573.88
2023-01-30T09:22:19.015Z,100567.97
2023-01-30T09:25:21.904Z,100556.50
2023-01-30T09:28:25.775Z,100551.12
2023-01-30T09:31:31.629Z,100522.13
2023-01-30T09:34:34.584Z,100530.25
2023-01-30T09:37:37.477Z,100530.03
2023-01-30T09:40:59.201Z,100532.41
2023-01-30T09:44:20.660Z,100491.19
2023-01-30T09:47:33.499Z,100527.59
2023-01-30T09:50:36.998Z,100532.00
2023-01-30T09:54:03.553Z,100533.16
2023-01-30T09:57:21.930Z,100522.19
2023-01-30T10:00:44.048Z,100500.78
2023-01-30T10:04:23.941Z,100486.50
2023-01-30T10:07:43.251Z,100490.59
2023-01-30T10:11:09.574Z,100481.75
2023-01-30T10:14:41.669Z,100477.69
2023-01-30T10:18:22.605Z,100461.66
2023-01-30T10:21:47.863Z,100445.06
2023-01-30T10:25:09.437Z,100420.19
2023-01-30T10:28:32.838Z,100413.47
2023-01-30T10:31:42.872Z,100415.16
2023-01-30T10:34:54.774Z,100396.78
2023-01-30T10:38:27.053Z,100389.81
2023-01-30T10:41:36.875Z,100364.00
2023-01-30T10:44:41.879Z,100390.81
2023-01-30T10:48:42.465Z,100372.91
2023-01-30T10:52:24.619Z,100383.41
2023-01-30T10:55:42.755Z,100377.66
2023-01-30T10:58:52.712Z,100360.88
2023-01-30T11:02:27.115Z,100332.22
2023-01-30T11:05:39.974Z,100312.13
2023-01-30T11:08:46.531Z,100306.31
2023-01-30T11:11:57.676Z,100286.81
2023-01-30T11:15:01.838Z,100273.00
2023-01-30T11:18:40.403Z,100274.66
2023-01-30T11:21:42.349Z,100274.53
2023-01-30T11:24:46.864Z,100265.69
2023-01-30T11:28:00.792Z,100266.38
2023-01-30T11:31:04.176Z,100256.81
2023-01-30T11:34:13.731Z,100251.16
2023-01-30T11:37:28.676Z,100246.56
2023-01-30T11:40:40.465Z,100243.84
2023-01-30T11:43:51.651Z,100220.91
2023-01-30T11:46:54.829Z,100220.78
2023-01-30T11:50:07.628Z,100199.06
2023-01-30T11:53:37.503Z,100190.19
2023-01-30T11:56:54.075Z,100177.44
2023-01-30T12:00:01.301Z,100165.87
2023-01-30T12:03:06.904Z,100160.69
2023-01-30T12:06:09.840Z,100141.87
2023-01-30T12:09:50.667Z,100134.19
2023-01-30T12:12:56.482Z,100132.78
2023-01-30T12:16:21.819Z,100133.59
2023-01-30T12:19:44.020Z,100131.97
2023-01-30T12:23:00.674Z,100123.81
2023-01-30T12:26:09.367Z,100116.72
2023-01-30T12:29:29.154Z,100122.88
2023-01-30T12:32:34.835Z,100113.88
2023-01-30T12:36:00.825Z,100114.72
2023-01-30T12:39:13.057Z,100113.06
2023-01-30T12:42:48.091Z,100099.84
2023-01-30T12:46:24.575Z,100091.09
2023-01-30T12:49:55.996Z,100086.84
2023-01-30T12:53:21.940Z,100091.78
2023-01-30T12:56:45.209Z,100090.84
2023-01-30T13:00:10.642Z,100093.34
2023-01-30T13:03:31.762Z,100091.59
2023-01-30T13:06:59.585Z,100093.44
2023-01-30T13:10:33.444Z,100096.28
2023-01-30T13:13:46.187Z,100101.16
2023-01-30T13:17:01.631Z,100101.25
2023-01-30T13:20:14.651Z,100095.09
2023-01-30T13:23:19.346Z,100091.91
2023-01-30T13:26:27.244Z,100103.00
2023-01-30T13:29:39.144Z,100111.53
2023-01-30T13:32:50.736Z,100098.91
2023-01-30T13:36:20.678Z,100101.00
2023-01-30T13:39:42.800Z,100108.94
2023-01-30T13:42:59.702Z,100110.47
2023-01-30T13:46:07.727Z,100116.13
2023-01-30T13:49:47.807Z,100116.03
2023-01-30T13:53:00.730Z,100107.28
2023-01-30T13:56:27.122Z,100107.97
2023-01-30T13:59:36.182Z,100107.03
2023-01-30T14:03:04.562Z,100104.19
2023-01-30T14:06:25.864Z,100096.97
2023-01-30T14:09:33.446Z,100108.19
2023-01-30T14:12:44.957Z,100101.94
2023-01-30T14:15:56.943Z,100097.56
2023-01-30T14:18:59.867Z,100108.41
2023-01-30T14:22:31.545Z,100100.38
2023-01-30T14:25:36.640Z,100096.56
2023-01-30T14:28:48.833Z,100104.63
2023-01-30T14:31:51.992Z,100100.38
2023-01-30T14:35:03.990Z,100118.56
2023-01-30T14:38:07.682Z,100128.97
2023-01-30T14:41:33.736Z,100134.28
2023-01-30T14:45:06.599Z,100134.78
2023-01-30T14:48:55.158Z,100127.22
2023-01-30T14:51:59.497Z,100137.75
2023-01-30T14:55:03.293Z,100144.00
2023-01-30T14:58:15.996Z,100140.59
2023-01-30T15:01:19.695Z,100124.66
2023-01-30T15:04:22.689Z,100130.56
2023-01-30T15:07:45.686Z,100121.69
2023-01-30T15:10:53.651Z,100124.41
2023-01-30T15:14:22.834Z,100131.50
2023-01-30T15:17:29.389Z,100120.16
2023-01-30T15:20:59.811Z,100133.16
2023-01-30T15:24:24.038Z,100130.78
2023-01-30T15:27:55.631Z,100129.44
2023-01-30T15:31:07.340Z,100136.53
2023-01-30T15:34:20.337Z,100148.19
2023-01-30T15:37:36.006Z,100132.16
2023-01-30T15:40:40.947Z,100150.78
2023-01-30T15:44:06.640Z,100146.16
2023-01-30T15:47:40.995Z,100137.91
2023-01-30T15:50:52.645Z,100141.44
2023-01-30T15:53:56.978Z,100139.88
2023-01-30T15:57:01.050Z,100137.41
2023-01-30T16:00:06.484Z,100141.87
2023-01-30T16:03:13.880Z,100136.81
2023-01-30T16:06:30.239Z,100148.00
2023-01-30T16:09:33.047Z,100140.22
2023-01-30T16:12:41.181Z,100134.34
2023-01-30T16:15:58.380Z,100140.34
2023-01-30T16:19:03.651Z,100144.84
2023-01-30T16:22:17.410Z,100147.22
2023-01-30T16:25:23.750Z,100147.34
2023-01-30T16:28:31.541Z,100152.41
2023-01-30T16:31:38.478Z,100158.41
2023-01-30T16:34:42.215Z,100165.38
2023-01-30T16:37:45.031Z,100171.41
2023-01-30T16:40:48.100Z,100181.53
2023-01-30T16:44:28.257Z,100177.06
2023-01-30T16:47:31.829Z,100174.38
2023-01-30T16:50:34.633Z,100177.78
2023-01-30T16:53:51.242Z,100166.94
2023-01-30T16:56:56.305Z,100161.75
2023-01-30T16:59:59.912Z,100163.19
2023-01-30T17:03:09.714Z,100161.66
2023-01-30T17:06:40.031Z,100149.91
2023-01-30T17:09:46.196Z,100152.28
2023-01-30T17:12:50.097Z,100153.44
2023-01-30T17:15:53.076Z,100152.97
2023-01-30T17:18:56.787Z,100150.97
2023-01-30T17:22:00.305Z,100149.66
2023-01-30T17:25:06.016Z,100137.16
2023-01-30T17:28:12.470Z,100132.78
2023-01-30T17:31:16.857Z,100148.13
2023-01-30T17:34:20.095Z,100151.09
2023-01-30T17:37:23.409Z,100161.72
2023-01-30T17:40:33.978Z,100155.72
2023-01-30T17:43:39.881Z,100149.69
2023-01-30T17:46:50.161Z,100159.97
2023-01-30T17:49:56.002Z,100163.16
2023-01-30T17:52:58.805Z,100168.31
2023-01-30T17:56:01.702Z,100163.47
2023-01-30T17:59:06.984Z,100162.16
2023-01-30T18:02:10.605Z,100164.62
2023-01-30T18:05:13.757Z,100166.66
2023-01-30T18:08:16.789Z,100161.09
2023-01-30T18:11:22.559Z,100164.28
2023-01-30T18:14:25.752Z,100171.06
2023-01-30T18:17:29.759Z,100167.56
2023-01-30T18:20:32.826Z,100170.31
2023-01-30T18:23:37.513Z,100163.75
2023-01-30T18:26:41.389Z,100173.94
2023-01-30T18:29:44.511Z,100165.50
2023-01-30T18:32:53.261Z,100172.44
2023-01-30T18:35:56.683Z,100164.59
2023-01-30T18:38:59.900Z,100170.16
2023-01-30T18:42:03.404Z,100170.13
2023-01-30T18:45:06.819Z,100160.25
2023-01-30T18:48:09.993Z,100166.19
2023-01-30T18:51:19.327Z,100167.66
2023-01-30T18:54:22.545Z,100176.03
2023-01-30T18:57:25.604Z,100184.25
2023-01-30T19:00:28.807Z,100192.47
2023-01-30T19:03:31.880Z,100194.41
2023-01-30T19:06:40.979Z,100189.22
2023-01-30T19:09:44.117Z,100179.22
2023-01-30T19:13:05.886Z,100180.31
2023-01-30T19:16:09.006Z,100173.97
2023-01-30T19:19:12.351Z,100167.25
2023-01-30T19:22:17.967Z,100161.03
2023-01-30T19:25:23.030Z,100175.09
2023-01-30T19:28:26.300Z,100165.13
2023-01-30T19:31:29.347Z,100174.59
2023-01-30T19:34:32.377Z,100183.03
2023-01-30T19:37:36.285Z,100179.56
2023-01-30T19:40:43.662Z,100174.91
2023-01-30T19:43:47.168Z,100169.13
2023-01-30T19:46:50.350Z,100173.91
2023-01-30T19:49:54.285Z,100174.22
2023-01-30T19:52:57.911Z,100183.13
2023-01-30T19:56:05.084Z,100185.84
2023-01-30T19:59:09.530Z,100185.84
2023-01-30T20:02:13.212Z,100185.84
2023-01-30T20:05:17.016Z,100191.50
2023-01-30T20:08:32.029Z,100190.72
2023-01-30T20:11:37.242Z,100188.50
2023-01-30T20:14:40.655Z,100182.06
2023-01-30T20:17:43.930Z,100187.41
2023-01-30T20:20:47.004Z,100183.94
2023-01-30T20:23:50.715Z,100185.97
2023-01-30T20:26:53.540Z,100186.53
2023-01-30T20:29:56.728Z,100182.97
2023-01-30T20:32:59.517Z,100184.09
2023-01-30T20:36:04.761Z,100181.62
2023-01-30T20:39:08.556Z,100183.47
2023-01-30T20:42:12.974Z,100183.06
2023-01-30T20:45:15.948Z,100182.28
2023-01-30T20:48:22.225Z,100180.59
2023-01-30T20:51:27.299Z,100177.88
2023-01-30T20:54:30.685Z,100170.03
2023-01-30T20:57:33.893Z,100161.34
2023-01-30T21:00:37.206Z,100158.09
2023-01-30T21:03:40.329Z,100162.72
2023-01-30T21:06:45.688Z,100161.38
2023-01-30T21:09:49.642Z,100157.25
2023-01-30T21:12:52.739Z,100159.13
2023-01-30T21:16:04.639Z,100168.81
2023-01-30T21:19:09.059Z,100167.41
2023-01-30T21:22:12.103Z,100166.72
2023-01-30T21:25:14.908Z,100176.16
2023-01-30T21:28:17.975Z,100202.75
2023-01-30T21:31:26.619Z,100195.41
2023-01-30T21:34:29.427Z,100194.97
2023-01-30T21:37:50.744Z,100194.59
2023-01-30T21:41:11.906Z,100195.09
2023-01-30T21:44:15.036Z,100192.91
2023-01-30T21:47:18.110Z,100199.91
2023-01-30T21:50:21.183Z,100184.00
2023-01-30T21:53:24.143Z,100180.81
2023-01-30T21:56:26.995Z,100174.34
2023-01-30T21:59:31.423Z,100177.88
2023-01-30T22:02:34.369Z,100178.53
2023-01-30T22:05:37.803Z,100180.75
2023-01-30T22:08:41.353Z,100179.75
2023-01-30T22:11:44.549Z,100177.56
2023-01-30T22:14:47.346Z,100173.84
2023-01-30T22:17:50.285Z,100185.22
2023-01-30T22:20:53.162Z,100194.16
2023-01-30T22:23:56.407Z,100189.31
2023-01-30T22:26:59.421Z,100198.59
2023-01-30T22:30:02.200Z,100181.44
2023-01-30T22:33:05.033Z,100175.25
2023-01-30T22:36:08.221Z,100173.63
2023-01-30T22:39:11.130Z,100178.63
2023-01-30T22:42:14.048Z,100182.03
2023-01-30T22:45:17.076Z,100192.16
2023-01-30T22:48:19.989Z,100186.44
2023-01-30T22:51:28.377Z,100192.84
2023-01-30T22:54:31.589Z,100188.50
2023-01-30T22:57:34.498Z,100191.91
2023-01-30T23:00:37.333Z,100189.75
2023-01-30T23:03:41.678Z,100185.91
2023-01-30T23:06:45.175Z,100184.00
2023-01-30T23:09:48.143Z,100182.34
2023-01-30T23:13:06.963Z,100183.97
2023-01-30T23:16:10.451Z,100182.00
2023-01-30T23:19:13.814Z,100185.22
2023-01-30T23:22:17.189Z,100178.50
2023-01-30T23:25:20.441Z,100167.91
2023-01-30T23:28:23.445Z,100181.47
2023-01-30T23:31:29.184Z,100186.31
2023-01-30T23:34:32.037Z,100192.78
2023-01-30T23:37:53.463Z,100194.22
2023-01-30T23:41:05.523Z,100195.16
2023-01-30T23:44:08.913Z,100208.69
2023-01-30T23:47:11.897Z,100188.72
2023-01-30T23:50:14.723Z,100186.69
2023-01-30T23:53:17.560Z,100178.03
2023-01-30T23:56:21.852Z,100192.47
2023-01-30T23:59:24.694Z,100196.34
